sensor_id;sensor_type;location;lat;lon;timestamp;pressure;altitude;pressure_sealevel;temperature;humidity
82418;BME280;72059;53.734;10.260;2023-10-08T00:01:38;101513.00;;;8.93;100.00
82418;BME280;72059;53.734;10.260;2023-10-08T00:04:11;101491.62;;;8.87;99.98
82418;BME280;72059;53.734;10.260;2023-10-08T00:06:40;101504.75;;;8.92;100.00
82418;BME280;72059;53.734;10.260;2023-10-08T00:09:07;101521.53;;;8.92;100.00
82418;BME280;72059;53.734;10.260;2023-10-08T00:11:36;101520.66;;;8.92;100.00
82418;BME280;72059;53.734;10.260;2023-10-08T00:14:05;101530.57;;;8.92;100.00
82418;BME280;72059;53.734;10.260;2023-10-08T00:16:34;101537.02;;;8.92;100.00
82418;BME280;72059;53.734;10.260;2023-10-08T00:19:02;101536.16;;;8.92;100.00
82418;BME280;72059;53.734;10.260;2023-10-08T00:21:31;101523.25;;;8.92;100.00
82418;BME280;72059;53.734;10.260;2023-10-08T00:24:00;101530.57;;;8.92;100.00
82418;BME280;72059;53.734;10.260;2023-10-08T00:26:29;101541.71;;;8.91;100.00
82418;BME280;72059;53.734;10.260;2023-10-08T00:29:00;101538.18;;;8.89;100.00
82418;BME280;72059;53.734;10.260;2023-10-08T00:31:29;101551.39;;;8.87;100.00
82418;BME280;72059;53.734;10.260;2023-10-08T00:33:58;101545.67;;;8.84;100.00
82418;BME280;72059;53.734;10.260;2023-10-08T00:36:25;101552.44;;;8.82;100.00
82418;BME280;72059;53.734;10.260;2023-10-08T00:38:52;101554.06;;;8.80;100.00
82418;BME280;72059;53.734;10.260;2023-10-08T00:41:24;101566.16;;;8.81;100.00
82418;BME280;72059;53.734;10.260;2023-10-08T00:43:54;101564.00;;;8.81;100.00
82418;BME280;72059;53.734;10.260;2023-10-08T00:46:27;101582.07;;;8.81;100.00
82418;BME280;72059;53.734;10.260;2023-10-08T00:49:01;101596.27;;;8.81;100.00
82418;BME280;72059;53.734;10.260;2023-10-08T00:51:47;101606.17;;;8.81;100.00
82418;BME280;72059;53.734;10.260;2023-10-08T00:54:16;101605.70;;;8.80;100.00
82418;BME280;72059;53.734;10.260;2023-10-08T00:56:46;101606.91;;;8.79;100.00
82418;BME280;72059;53.734;10.260;2023-10-08T00:59:18;101607.20;;;8.77;100.00
82418;BME280;72059;53.734;10.260;2023-10-08T01:01:49;101582.45;;;8.72;100.00
82418;BME280;72059;53.734;10.260;2023-10-08T01:04:22;101585.59;;;8.74;100.00
82418;BME280;72059;53.734;10.260;2023-10-08T01:06:57;101582.93;;;8.73;100.00
82418;BME280;72059;53.734;10.260;2023-10-08T01:09:29;101584.05;;;8.70;100.00
82418;BME280;72059;53.734;10.260;2023-10-08T01:12:09;101596.78;;;8.67;100.00
82418;BME280;72059;53.734;10.260;2023-10-08T01:14:38;101604.95;;;8.66;100.00
82418;BME280;72059;53.734;10.260;2023-10-08T01:17:12;101618.24;;;8.66;100.00
82418;BME280;72059;53.734;10.260;2023-10-08T01:19:38;101610.11;;;8.66;100.00
82418;BME280;72059;53.734;10.260;2023-10-08T01:22:07;101605.42;;;8.67;100.00
82418;BME280;72059;53.734;10.260;2023-10-08T01:24:36;101617.85;;;8.66;100.00
82418;BME280;72059;53.734;10.260;2023-10-08T01:27:03;101601.85;;;8.65;100.00
82418;BME280;72059;53.734;10.260;2023-10-08T01:29:35;101606.54;;;8.64;100.00
82418;BME280;72059;53.734;10.260;2023-10-08T01:32:03;101600.90;;;8.63;100.00
82418;BME280;72059;53.734;10.260;2023-10-08T01:34:32;101618.97;;;8.63;100.00
82418;BME280;72059;53.734;10.260;2023-10-08T01:37:01;101614.61;;;8.62;100.00
82418;BME280;72059;53.734;10.260;2023-10-08T01:39:30;101621.38;;;8.60;100.00
82418;BME280;72059;53.734;10.260;2023-10-08T01:41:58;101620.41;;;8.58;100.00
82418;BME280;72059;53.734;10.260;2023-10-08T01:44:26;101615.47;;;8.54;99.98
82418;BME280;72059;53.734;10.260;2023-10-08T01:46:55;101617.92;;;8.53;100.00
82418;BME280;72059;53.734;10.260;2023-10-08T01:49:24;101611.80;;;8.51;100.00
82418;BME280;72059;53.734;10.260;2023-10-08T01:51:53;101608.23;;;8.48;99.98
82418;BME280;72059;53.734;10.260;2023-10-08T01:54:21;101607.66;;;8.46;99.98
82418;BME280;72059;53.734;10.260;2023-10-08T01:56:50;101608.05;;;8.45;99.98
82418;BME280;72059;53.734;10.260;2023-10-08T01:59:17;101603.70;;;8.44;99.97
82418;BME280;72059;53.734;10.260;2023-10-08T02:01:45;101602.23;;;8.41;99.94
82418;BME280;72059;53.734;10.260;2023-10-08T02:04:12;101595.64;;;8.38;99.96
82418;BME280;72059;53.734;10.260;2023-10-08T02:06:41;101595.46;;;8.35;99.94
82418;BME280;72059;53.734;10.260;2023-10-08T02:09:09;101596.09;;;8.31;99.92
82418;BME280;72059;53.734;10.260;2023-10-08T02:11:48;101585.89;;;8.26;99.93
82418;BME280;72059;53.734;10.260;2023-10-08T02:14:17;101587.61;;;8.25;99.92
82418;BME280;72059;53.734;10.260;2023-10-08T02:16:45;101585.80;;;8.24;99.90
82418;BME280;72059;53.734;10.260;2023-10-08T02:19:13;101600.41;;;8.23;99.90
82418;BME280;72059;53.734;10.260;2023-10-08T02:21:42;101600.32;;;8.22;99.87
82418;BME280;72059;53.734;10.260;2023-10-08T02:24:11;101619.28;;;8.22;99.87
82418;BME280;72059;53.734;10.260;2023-10-08T02:26:39;101626.41;;;8.20;99.87
82418;BME280;72059;53.734;10.260;2023-10-08T02:29:09;101620.78;;;8.19;99.86
82418;BME280;72059;53.734;10.260;2023-10-08T02:31:40;101635.69;;;8.16;99.84
82418;BME280;72059;53.734;10.260;2023-10-08T02:34:08;101654.75;;;8.12;99.83
82418;BME280;72059;53.734;10.260;2023-10-08T02:36:36;101647.49;;;8.13;99.81
82418;BME280;72059;53.734;10.260;2023-10-08T02:39:04;101638.56;;;8.14;99.82
82418;BME280;72059;53.734;10.260;2023-10-08T02:41:44;101642.04;;;8.15;99.80
82418;BME280;72059;53.734;10.260;2023-10-08T02:44:15;101642.27;;;8.11;99.79
82418;BME280;72059;53.734;10.260;2023-10-08T02:46:44;101659.24;;;8.07;99.79
82418;BME280;72059;53.734;10.260;2023-10-08T02:49:17;101658.77;;;8.06;99.79
82418;BME280;72059;53.734;10.260;2023-10-08T02:51:47;101659.77;;;8.02;99.77
82418;BME280;72059;53.734;10.260;2023-10-08T02:54:17;101666.66;;;7.94;99.73
82418;BME280;72059;53.734;10.260;2023-10-08T02:56:49;101674.62;;;7.91;99.73
82418;BME280;72059;53.734;10.260;2023-10-08T02:59:21;101678.48;;;7.91;99.73
82418;BME280;72059;53.734;10.260;2023-10-08T03:01:50;101676.20;;;7.89;99.73
82418;BME280;72059;53.734;10.260;2023-10-08T03:04:19;101695.86;;;7.87;99.73
82418;BME280;72059;53.734;10.260;2023-10-08T03:06:46;101686.84;;;7.87;99.75
82418;BME280;72059;53.734;10.260;2023-10-08T03:09:18;101691.09;;;7.86;99.74
82418;BME280;72059;53.734;10.260;2023-10-08T03:11:48;101708.75;;;7.87;99.73
82418;BME280;72059;53.734;10.260;2023-10-08T03:14:17;101698.44;;;7.87;99.76
82418;BME280;72059;53.734;10.260;2023-10-08T03:16:53;101693.19;;;7.85;99.74
82418;BME280;72059;53.734;10.260;2023-10-08T03:19:23;101698.25;;;7.83;99.76
82418;BME280;72059;53.734;10.260;2023-10-08T03:21:51;101724.74;;;7.81;99.77
82418;BME280;72059;53.734;10.260;2023-10-08T03:24:20;101718.10;;;7.78;99.78
82418;BME280;72059;53.734;10.260;2023-10-08T03:26:51;101725.36;;;7.77;99.77
82418;BME280;72059;53.734;10.260;2023-10-08T03:29:20;101725.77;;;7.69;99.77
82418;BME280;72059;53.734;10.260;2023-10-08T03:31:48;101721.62;;;7.65;99.75
82418;BME280;72059;53.734;10.260;2023-10-08T03:34:18;101719.45;;;7.64;99.73
82418;BME280;72059;53.734;10.260;2023-10-08T03:36:47;101725.58;;;7.66;99.73
82418;BME280;72059;53.734;10.260;2023-10-08T03:39:17;101742.33;;;7.66;99.72
82418;BME280;72059;53.734;10.260;2023-10-08T03:41:45;101731.92;;;7.65;99.74
82418;BME280;72059;53.734;10.260;2023-10-08T03:44:20;101715.88;;;7.62;99.72
82418;BME280;72059;53.734;10.260;2023-10-08T03:46:47;101720.39;;;7.51;99.73
82418;BME280;72059;53.734;10.260;2023-10-08T03:49:15;101739.31;;;7.45;99.67
82418;BME280;72059;53.734;10.260;2023-10-08T03:51:51;101746.56;;;7.44;99.64
82418;BME280;72059;53.734;10.260;2023-10-08T03:54:22;101746.27;;;7.39;99.66
82418;BME280;72059;53.734;10.260;2023-10-08T03:57:02;101746.58;;;7.30;99.62
82418;BME280;72059;53.734;10.260;2023-10-08T03:59:34;101743.53;;;7.23;99.55
82418;BME280;72059;53.734;10.260;2023-10-08T04:02:03;101725.80;;;7.14;99.50
82418;BME280;72059;53.734;10.260;2023-10-08T04:04:38;101730.97;;;7.07;99.43
82418;BME280;72059;53.734;10.260;2023-10-08T04:07:21;101744.55;;;7.04;99.41
82418;BME280;72059;53.734;10.260;2023-10-08T04:09:58;101751.64;;;7.02;99.36
82418;BME280;72059;53.734;10.260;2023-10-08T04:12:27;101750.89;;;6.96;99.33
82418;BME280;72059;53.734;10.260;2023-10-08T04:14:55;101755.63;;;6.90;99.27
82418;BME280;72059;53.734;10.260;2023-10-08T04:17:22;101757.09;;;6.86;99.24
82418;BME280;72059;53.734;10.260;2023-10-08T04:19:49;101766.31;;;6.83;99.21
82418;BME280;72059;53.734;10.260;2023-10-08T04:22:17;101748.41;;;6.77;99.18
82418;BME280;72059;53.734;10.260;2023-10-08T04:24:45;101749.38;;;6.73;99.17
82418;BME280;72059;53.734;10.260;2023-10-08T04:27:13;101773.73;;;6.71;99.15
82418;BME280;72059;53.734;10.260;2023-10-08T04:29:41;101763.43;;;6.78;99.20
82418;BME280;72059;53.734;10.260;2023-10-08T04:32:09;101756.92;;;6.83;99.22
82418;BME280;72059;53.734;10.260;2023-10-08T04:34:38;101757.89;;;6.85;99.27
82418;BME280;72059;53.734;10.260;2023-10-08T04:37:07;101777.02;;;6.89;99.35
82418;BME280;72059;53.734;10.260;2023-10-08T04:39:41;101776.42;;;6.93;99.38
82418;BME280;72059;53.734;10.260;2023-10-08T04:42:11;101787.80;;;6.97;99.44
82418;BME280;72059;53.734;10.260;2023-10-08T04:44:40;101793.16;;;7.00;99.47
82418;BME280;72059;53.734;10.260;2023-10-08T04:47:08;101817.62;;;7.00;99.51
82418;BME280;72059;53.734;10.260;2023-10-08T04:49:36;101806.73;;;6.97;99.51
82418;BME280;72059;53.734;10.260;2023-10-08T04:52:06;101816.81;;;6.94;99.52
82418;BME280;72059;53.734;10.260;2023-10-08T04:54:45;101781.05;;;6.92;99.53
82418;BME280;72059;53.734;10.260;2023-10-08T04:57:21;101784.53;;;6.92;99.54
82418;BME280;72059;53.734;10.260;2023-10-08T04:59:49;101803.05;;;6.93;99.56
82418;BME280;72059;53.734;10.260;2023-10-08T05:02:17;101803.56;;;6.94;99.56
82418;BME280;72059;53.734;10.260;2023-10-08T05:04:50;101813.44;;;6.95;99.58
82418;BME280;72059;53.734;10.260;2023-10-08T05:07:19;101823.36;;;6.96;99.59
82418;BME280;72059;53.734;10.260;2023-10-08T05:09:54;101813.86;;;6.94;99.59
82418;BME280;72059;53.734;10.260;2023-10-08T05:12:36;101815.53;;;6.94;99.61
82418;BME280;72059;53.734;10.260;2023-10-08T05:15:14;101819.01;;;6.94;99.61
82418;BME280;72059;53.734;10.260;2023-10-08T05:17:44;101830.18;;;6.95;99.64
82418;BME280;72059;53.734;10.260;2023-10-08T05:20:21;101835.84;;;6.96;99.64
82418;BME280;72059;53.734;10.260;2023-10-08T05:23:14;101822.07;;;6.96;99.66
82418;BME280;72059;53.734;10.260;2023-10-08T05:25:49;101829.69;;;6.94;99.68
82418;BME280;72059;53.734;10.260;2023-10-08T05:28:39;101840.27;;;6.92;99.69
82418;BME280;72059;53.734;10.260;2023-10-08T05:31:08;101836.51;;;6.87;99.67
82418;BME280;72059;53.734;10.260;2023-10-08T05:33:44;101841.76;;;6.81;99.65
82418;BME280;72059;53.734;10.260;2023-10-08T05:36:28;101844.92;;;6.77;99.65
82418;BME280;72059;53.734;10.260;2023-10-08T05:38:57;101843.31;;;6.73;99.64
82418;BME280;72059;53.734;10.260;2023-10-08T05:41:28;101845.77;;;6.64;99.60
82418;BME280;72059;53.734;10.260;2023-10-08T05:43:57;101852.58;;;6.57;99.56
82418;BME280;72059;53.734;10.260;2023-10-08T05:46:43;101856.91;;;6.51;99.54
82418;BME280;72059;53.734;10.260;2023-10-08T05:49:15;101852.84;;;6.48;99.49
82418;BME280;72059;53.734;10.260;2023-10-08T05:51:44;101857.49;;;6.47;99.49
82418;BME280;72059;53.734;10.260;2023-10-08T05:54:17;101858.09;;;6.50;99.46
82418;BME280;72059;53.734;10.260;2023-10-08T06:02:29;101859.03;;;6.38;99.37
82418;BME280;72059;53.734;10.260;2023-10-08T06:05:02;101871.38;;;6.30;99.31
82418;BME280;72059;53.734;10.260;2023-10-08T06:07:42;101874.42;;;6.25;99.23
82418;BME280;72059;53.734;10.260;2023-10-08T06:10:26;101879.34;;;6.22;99.21
82418;BME280;72059;53.734;10.260;2023-10-08T06:13:08;101880.80;;;6.18;99.17
82418;BME280;72059;53.734;10.260;2023-10-08T06:15:42;101886.63;;;6.15;99.17
82418;BME280;72059;53.734;10.260;2023-10-08T06:18:19;101882.66;;;6.14;99.15
82418;BME280;72059;53.734;10.260;2023-10-08T06:20:48;101895.13;;;6.14;99.16
82418;BME280;72059;53.734;10.260;2023-10-08T06:23:18;101898.61;;;6.15;99.16
82418;BME280;72059;53.734;10.260;2023-10-08T06:25:51;101902.58;;;6.16;99.18
82418;BME280;72059;53.734;10.260;2023-10-08T06:28:17;101907.14;;;6.21;99.22
82418;BME280;72059;53.734;10.260;2023-10-08T06:30:48;101920.52;;;6.28;99.29
82418;BME280;72059;53.734;10.260;2023-10-08T06:33:18;101917.59;;;6.36;99.34
82418;BME280;72059;53.734;10.260;2023-10-08T06:35:45;101922.50;;;6.45;99.41
82418;BME280;72059;53.734;10.260;2023-10-08T06:38:16;101927.55;;;6.50;99.46
82418;BME280;72059;53.734;10.260;2023-10-08T06:40:45;101935.02;;;6.59;99.51
82418;BME280;72059;53.734;10.260;2023-10-08T06:43:14;101931.48;;;6.63;99.57
82418;BME280;72059;53.734;10.260;2023-10-08T06:45:44;101941.00;;;6.71;99.61
82418;BME280;72059;53.734;10.260;2023-10-08T06:48:14;101954.00;;;6.79;99.67
82418;BME280;72059;53.734;10.260;2023-10-08T06:50:48;101959.37;;;6.89;99.71
82418;BME280;72059;53.734;10.260;2023-10-08T06:53:16;101960.52;;;7.00;99.75
82418;BME280;72059;53.734;10.260;2023-10-08T06:55:48;101958.36;;;7.06;99.76
82418;BME280;72059;53.734;10.260;2023-10-08T06:58:17;101963.91;;;7.12;99.79
82418;BME280;72059;53.734;10.260;2023-10-08T07:00:44;101972.64;;;7.14;99.80
82418;BME280;72059;53.734;10.260;2023-10-08T07:03:18;101979.48;;;7.20;99.85
82418;BME280;72059;53.734;10.260;2023-10-08T07:05:48;101978.50;;;7.25;99.86
82418;BME280;72059;53.734;10.260;2023-10-08T07:08:18;101970.19;;;7.29;99.87
82418;BME280;72059;53.734;10.260;2023-10-08T07:10:46;101982.90;;;7.33;99.89
82418;BME280;72059;53.734;10.260;2023-10-08T07:13:13;101984.89;;;7.37;99.92
82418;BME280;72059;53.734;10.260;2023-10-08T07:15:43;101995.47;;;7.42;99.92
82418;BME280;72059;53.734;10.260;2023-10-08T07:18:12;101995.79;;;7.46;99.94
82418;BME280;72059;53.734;10.260;2023-10-08T07:20:44;101996.48;;;7.51;99.96
82418;BME280;72059;53.734;10.260;2023-10-08T07:23:12;101996.20;;;7.53;99.97
82418;BME280;72059;53.734;10.260;2023-10-08T07:25:41;101996.38;;;7.56;99.97
82418;BME280;72059;53.734;10.260;2023-10-08T07:28:10;101996.70;;;7.61;100.00
82418;BME280;72059;53.734;10.260;2023-10-08T07:30:39;101993.94;;;7.64;100.00
82418;BME280;72059;53.734;10.260;2023-10-08T07:33:08;102002.27;;;7.67;99.99
82418;BME280;72059;53.734;10.260;2023-10-08T07:35:37;102009.20;;;7.75;99.99
82418;BME280;72059;53.734;10.260;2023-10-08T07:38:05;102007.83;;;7.80;100.00
82418;BME280;72059;53.734;10.260;2023-10-08T07:40:34;102015.56;;;7.87;100.00
82418;BME280;72059;53.734;10.260;2023-10-08T07:43:03;102012.39;;;7.91;100.00
82418;BME280;72059;53.734;10.260;2023-10-08T07:45:32;102022.70;;;7.97;100.00
82418;BME280;72059;53.734;10.260;2023-10-08T07:48:02;102028.27;;;8.04;100.00
82418;BME280;72059;53.734;10.260;2023-10-08T07:50:31;102024.59;;;8.07;100.00
82418;BME280;72059;53.734;10.260;2023-10-08T07:52:58;102025.45;;;8.14;100.00
82418;BME280;72059;53.734;10.260;2023-10-08T07:55:26;102029.45;;;8.22;100.00
82418;BME280;72059;53.734;10.260;2023-10-08T07:57:53;102031.33;;;8.25;100.00
82418;BME280;72059;53.734;10.260;2023-10-08T08:00:21;102032.59;;;8.32;100.00
82418;BME280;72059;53.734;10.260;2023-10-08T08:02:50;102042.91;;;8.39;100.00
82418;BME280;72059;53.734;10.260;2023-10-08T08:05:18;102049.33;;;8.45;100.00
82418;BME280;72059;53.734;10.260;2023-10-08T08:07:46;102047.77;;;8.54;100.00
82418;BME280;72059;53.734;10.260;2023-10-08T08:10:15;102053.02;;;8.63;100.00
82418;BME280;72059;53.734;10.260;2023-10-08T08:12:44;102057.08;;;8.66;100.00
82418;BME280;72059;53.734;10.260;2023-10-08T08:15:12;102050.61;;;8.72;100.00
82418;BME280;72059;53.734;10.260;2023-10-08T08:17:43;102052.77;;;8.80;100.00
82418;BME280;72059;53.734;10.260;2023-10-08T08:20:12;102053.84;;;8.90;100.00
82418;BME280;72059;53.734;10.260;2023-10-08T08:22:45;102054.81;;;8.92;100.00
82418;BME280;72059;53.734;10.260;2023-10-08T08:25:15;102050.94;;;8.92;100.00
82418;BME280;72059;53.734;10.260;2023-10-08T08:27:43;102057.48;;;9.00;100.00
82418;BME280;72059;53.734;10.260;2023-10-08T08:30:12;102057.42;;;9.14;100.00
82418;BME280;72059;53.734;10.260;2023-10-08T08:32:45;102068.00;;;9.25;100.00
82418;BME280;72059;53.734;10.260;2023-10-08T08:35:13;102071.94;;;9.34;100.00
82418;BME280;72059;53.734;10.260;2023-10-08T08:37:43;102068.44;;;9.40;100.00
82418;BME280;72059;53.734;10.260;2023-10-08T08:40:12;102079.02;;;9.51;100.00
82418;BME280;72059;53.734;10.260;2023-10-08T08:42:49;102080.31;;;9.51;100.00
82418;BME280;72059;53.734;10.260;2023-10-08T08:45:20;102083.77;;;9.52;100.00
82418;BME280;72059;53.734;10.260;2023-10-08T08:47:48;102085.11;;;9.60;100.00
82418;BME280;72059;53.734;10.260;2023-10-08T08:50:15;102085.66;;;9.70;100.00
82418;BME280;72059;53.734;10.260;2023-10-08T08:52:43;102084.95;;;9.72;100.00
82418;BME280;72059;53.734;10.260;2023-10-08T08:55:12;102091.09;;;9.59;99.98
82418;BME280;72059;53.734;10.260;2023-10-08T08:57:44;102089.41;;;9.60;99.96
82418;BME280;72059;53.734;10.260;2023-10-08T09:00:14;102092.84;;;9.67;99.96
82418;BME280;72059;53.734;10.260;2023-10-08T09:02:45;102096.91;;;9.85;99.99
82418;BME280;72059;53.734;10.260;2023-10-08T09:05:13;102104.98;;;9.98;100.00
82418;BME280;72059;53.734;10.260;2023-10-08T09:10:25;102111.87;;;10.21;100.00
82418;BME280;72059;53.734;10.260;2023-10-08T09:12:59;102113.83;;;10.25;100.00
82418;BME280;72059;53.734;10.260;2023-10-08T09:15:26;102118.52;;;10.09;99.96
82418;BME280;72059;53.734;10.260;2023-10-08T09:17:55;102121.69;;;10.12;99.95
82418;BME280;72059;53.734;10.260;2023-10-08T09:20:24;102126.02;;;10.20;99.99
82418;BME280;72059;53.734;10.260;2023-10-08T09:23:06;102129.05;;;10.36;100.00
82418;BME280;72059;53.734;10.260;2023-10-08T09:25:34;102125.74;;;10.45;100.00
82418;BME280;72059;53.734;10.260;2023-10-08T09:28:02;102122.06;;;10.57;100.00
82418;BME280;72059;53.734;10.260;2023-10-08T09:30:32;102126.88;;;10.50;100.00
82418;BME280;72059;53.734;10.260;2023-10-08T09:33:01;102130.94;;;10.53;100.00
82418;BME280;72059;53.734;10.260;2023-10-08T09:35:29;102135.97;;;10.59;99.98
82418;BME280;72059;53.734;10.260;2023-10-08T09:37:57;102132.19;;;10.69;100.00
82418;BME280;72059;53.734;10.260;2023-10-08T09:40:25;102139.92;;;10.75;100.00
82418;BME280;72059;53.734;10.260;2023-10-08T09:42:52;102140.38;;;10.68;100.00
82418;BME280;72059;53.734;10.260;2023-10-08T09:45:21;102137.28;;;10.67;100.00
82418;BME280;72059;53.734;10.260;2023-10-08T09:47:52;102135.97;;;10.59;99.95
82418;BME280;72059;53.734;10.260;2023-10-08T09:50:22;102128.81;;;10.46;99.86
82418;BME280;72059;53.734;10.260;2023-10-08T09:53:01;102130.59;;;10.71;99.90
82418;BME280;72059;53.734;10.260;2023-10-08T09:55:31;102135.50;;;10.98;99.94
82418;BME280;72059;53.734;10.260;2023-10-08T09:57:58;102128.06;;;11.12;99.95
82418;BME280;72059;53.734;10.260;2023-10-08T10:00:27;102136.66;;;11.28;99.98
82418;BME280;72059;53.734;10.260;2023-10-08T10:03:01;102136.87;;;11.41;99.97
82418;BME280;72059;53.734;10.260;2023-10-08T10:05:31;102137.20;;;11.47;99.92
82418;BME280;72059;53.734;10.260;2023-10-08T10:08:02;102152.85;;;11.40;99.86
82418;BME280;72059;53.734;10.260;2023-10-08T10:10:36;102134.53;;;11.37;99.78
82418;BME280;72059;53.734;10.260;2023-10-08T10:13:10;102141.41;;;11.45;99.76
82418;BME280;72059;53.734;10.260;2023-10-08T10:15:41;102143.28;;;11.56;99.74
82418;BME280;72059;53.734;10.260;2023-10-08T10:18:13;102136.77;;;11.73;99.74
82418;BME280;72059;53.734;10.260;2023-10-08T10:20:45;102138.47;;;11.80;99.75
82418;BME280;72059;53.734;10.260;2023-10-08T10:23:40;102142.25;;;11.87;99.71
82418;BME280;72059;53.734;10.260;2023-10-08T10:26:30;102157.53;;;11.99;99.67
82418;BME280;72059;53.734;10.260;2023-10-08T10:31:46;102165.45;;;12.19;99.48
82418;BME280;72059;53.734;10.260;2023-10-08T10:34:28;102161.24;;;12.39;99.47
82418;BME280;72059;53.734;10.260;2023-10-08T10:36:58;102172.48;;;12.66;99.45
82418;BME280;72059;53.734;10.260;2023-10-08T10:39:27;102182.41;;;12.93;99.45
82418;BME280;72059;53.734;10.260;2023-10-08T10:41:59;102173.19;;;13.20;99.45
82418;BME280;72059;53.734;10.260;2023-10-08T10:44:34;102169.26;;;13.38;99.39
82418;BME280;72059;53.734;10.260;2023-10-08T10:47:03;102166.05;;;13.44;99.15
82418;BME280;72059;53.734;10.260;2023-10-08T10:49:46;102156.94;;;13.44;98.61
82418;BME280;72059;53.734;10.260;2023-10-08T10:52:34;102157.12;;;13.29;94.54
82418;BME280;72059;53.734;10.260;2023-10-08T10:55:04;102148.41;;;13.08;93.70
82418;BME280;72059;53.734;10.260;2023-10-08T10:57:57;102150.21;;;13.00;94.10
82418;BME280;72059;53.734;10.260;2023-10-08T11:00:32;102149.11;;;13.14;95.09
82418;BME280;72059;53.734;10.260;2023-10-08T11:03:02;102143.65;;;13.37;95.69
82418;BME280;72059;53.734;10.260;2023-10-08T11:05:33;102138.83;;;13.55;95.51
82418;BME280;72059;53.734;10.260;2023-10-08T11:08:04;102142.64;;;13.64;94.50
82418;BME280;72059;53.734;10.260;2023-10-08T11:10:34;102138.31;;;13.64;92.84
82418;BME280;72059;53.734;10.260;2023-10-08T11:13:05;102128.58;;;13.70;93.12
82418;BME280;72059;53.734;10.260;2023-10-08T11:15:34;102134.99;;;13.78;92.93
82418;BME280;72059;53.734;10.260;2023-10-08T11:18:09;102125.84;;;13.77;89.73
82418;BME280;72059;53.734;10.260;2023-10-08T11:20:36;102116.73;;;13.77;89.65
82418;BME280;72059;53.734;10.260;2023-10-08T11:23:07;102122.38;;;13.87;88.84
82418;BME280;72059;53.734;10.260;2023-10-08T11:25:56;102119.45;;;14.01;87.54
82418;BME280;72059;53.734;10.260;2023-10-08T11:28:31;102114.58;;;14.09;85.62
82418;BME280;72059;53.734;10.260;2023-10-08T11:31:04;102107.51;;;14.28;81.05
82418;BME280;72059;53.734;10.260;2023-10-08T11:33:39;102105.24;;;14.25;77.13
82418;BME280;72059;53.734;10.260;2023-10-08T11:36:08;102107.45;;;14.26;75.89
82418;BME280;72059;53.734;10.260;2023-10-08T11:38:49;102107.25;;;14.21;73.09
82418;BME280;72059;53.734;10.260;2023-10-08T11:41:18;102106.66;;;14.17;71.71
82418;BME280;72059;53.734;10.260;2023-10-08T11:43:52;102111.00;;;14.07;67.86
82418;BME280;72059;53.734;10.260;2023-10-08T11:46:31;102113.41;;;13.91;69.09
82418;BME280;72059;53.734;10.260;2023-10-08T11:49:05;102113.14;;;13.84;70.30
82418;BME280;72059;53.734;10.260;2023-10-08T11:51:36;102113.94;;;13.93;69.71
82418;BME280;72059;53.734;10.260;2023-10-08T11:54:05;102117.28;;;14.00;67.95
82418;BME280;72059;53.734;10.260;2023-10-08T11:56:34;102123.86;;;14.02;67.56
82418;BME280;72059;53.734;10.260;2023-10-08T11:59:02;102122.16;;;13.93;67.45
82418;BME280;72059;53.734;10.260;2023-10-08T12:01:31;102116.98;;;13.83;67.26
82418;BME280;72059;53.734;10.260;2023-10-08T12:04:01;102112.79;;;13.65;66.54
82418;BME280;72059;53.734;10.260;2023-10-08T12:06:28;102108.63;;;13.49;65.11
82418;BME280;72059;53.734;10.260;2023-10-08T12:08:59;102113.33;;;13.48;63.16
82418;BME280;72059;53.734;10.260;2023-10-08T12:11:28;102108.00;;;13.55;62.22
82418;BME280;72059;53.734;10.260;2023-10-08T12:13:59;102100.25;;;13.66;63.24
82418;BME280;72059;53.734;10.260;2023-10-08T12:16:27;102113.56;;;13.74;63.17
82418;BME280;72059;53.734;10.260;2023-10-08T12:18:58;102116.04;;;13.81;62.86
82418;BME280;72059;53.734;10.260;2023-10-08T12:21:26;102110.47;;;13.83;63.17
82418;BME280;72059;53.734;10.260;2023-10-08T12:24:00;102112.88;;;13.78;62.79
82418;BME280;72059;53.734;10.260;2023-10-08T12:26:31;102120.77;;;13.70;63.02
82418;BME280;72059;53.734;10.260;2023-10-08T12:28:59;102101.32;;;13.71;61.88
82418;BME280;72059;53.734;10.260;2023-10-08T12:31:26;102095.39;;;13.85;61.78
82418;BME280;72059;53.734;10.260;2023-10-08T12:33:55;102093.08;;;14.03;60.47
82418;BME280;72059;53.734;10.260;2023-10-08T12:36:27;102089.36;;;14.19;58.77
82418;BME280;72059;53.734;10.260;2023-10-08T12:38:56;102086.17;;;14.26;58.07
82418;BME280;72059;53.734;10.260;2023-10-08T12:41:28;102079.60;;;14.25;59.10
82418;BME280;72059;53.734;10.260;2023-10-08T12:43:57;102086.36;;;14.20;59.46
82418;BME280;72059;53.734;10.260;2023-10-08T12:46:24;102087.00;;;14.14;58.47
82418;BME280;72059;53.734;10.260;2023-10-08T12:48:53;102097.48;;;14.16;58.51
82418;BME280;72059;53.734;10.260;2023-10-08T12:51:22;102102.39;;;14.31;57.63
82418;BME280;72059;53.734;10.260;2023-10-08T12:53:53;102106.17;;;14.60;57.39
82418;BME280;72059;53.734;10.260;2023-10-08T12:56:28;102103.45;;;14.92;57.10
82418;BME280;72059;53.734;10.260;2023-10-08T12:59:15;102103.03;;;15.16;56.88
82418;BME280;72059;53.734;10.260;2023-10-08T13:01:50;102099.41;;;15.37;55.73
82418;BME280;72059;53.734;10.260;2023-10-08T13:04:19;102102.47;;;15.50;54.32
82418;BME280;72059;53.734;10.260;2023-10-08T13:06:56;102111.39;;;15.57;53.99
82418;BME280;72059;53.734;10.260;2023-10-08T13:09:24;102109.65;;;15.57;53.28
82418;BME280;72059;53.734;10.260;2023-10-08T13:11:52;102104.70;;;15.65;53.74
82418;BME280;72059;53.734;10.260;2023-10-08T13:14:19;102104.65;;;15.63;52.55